Time;durP1;ratioP1;P1;durP2;ratioP2;P2;SDS_P1;SDS_P2;PMS_P1;PMS_P2;Temp;Humidity;BMP_temperature;BMP_pressure;BME280_temperature;BME280_humidity;BME280_pressure;Samples;Min_cycle;Max_cycle;Signal;HPM_P1;HPM_P2
2021/04/25 00:02:22;;;;;;;14.75;6.42;;;;;;;4.87;56.67;101135.92;1695384;83;25856;-73
2021/04/25 00:04:49;;;;;;;11.68;4.97;;;;;;;4.81;56.81;101134.66;1701025;83;26401;-73
2021/04/25 00:07:16;;;;;;;9.30;4.92;;;;;;;4.74;57.12;101135.33;1669846;84;25996;-74
2021/04/25 00:09:44;;;;;;;11.28;5.37;;;;;;;4.68;57.30;101138.05;1654485;84;25786;-73
2021/04/25 00:12:12;;;;;;;10.45;4.55;;;;;;;4.64;57.46;101133.48;1686403;83;27300;-73
2021/04/25 00:14:39;;;;;;;9.88;4.33;;;;;;;4.57;57.47;101130.20;1712425;82;26465;-73
2021/04/25 00:17:07;;;;;;;11.33;4.35;;;;;;;4.58;57.47;101139.81;1649891;82;25844;-74
2021/04/25 00:19:34;;;;;;;11.03;4.60;;;;;;;4.56;57.58;101133.33;1699938;82;26040;-73
2021/04/25 00:22:02;;;;;;;12.73;4.33;;;;;;;4.54;57.56;101131.78;1695063;82;25931;-74
2021/04/25 00:24:30;;;;;;;9.83;4.08;;;;;;;4.49;57.46;101130.04;1722674;82;28551;-73
2021/04/25 00:26:57;;;;;;;9.58;4.55;;;;;;;4.47;57.76;101122.70;1682644;82;25805;-74
2021/04/25 00:29:24;;;;;;;12.58;5.58;;;;;;;4.44;58.00;101122.48;1699834;82;25896;-74
2021/04/25 00:31:52;;;;;;;9.25;4.22;;;;;;;4.41;58.01;101115.26;1692605;82;25861;-73
2021/04/25 00:34:19;;;;;;;11.00;4.70;;;;;;;4.37;58.34;101114.70;1716627;82;26067;-73
2021/04/25 00:36:47;;;;;;;7.95;4.20;;;;;;;4.35;58.74;101125.08;1655289;82;27724;-73
2021/04/25 00:39:14;;;;;;;7.42;4.80;;;;;;;4.32;58.99;101117.41;1689042;82;26119;-73
2021/04/25 00:41:42;;;;;;;9.70;4.78;;;;;;;4.30;59.44;101118.03;1696838;82;25808;-74
2021/04/25 00:44:11;;;;;;;10.70;5.08;;;;;;;4.29;59.80;101116.34;1718752;82;26471;-73
2021/04/25 00:46:39;;;;;;;11.30;4.95;;;;;;;4.28;60.06;101107.55;1670520;82;25747;-72
2021/04/25 00:49:07;;;;;;;11.53;4.92;;;;;;;4.27;60.49;101109.86;1700287;82;28514;-74
2021/04/25 00:51:36;;;;;;;9.08;4.65;;;;;;;4.26;60.87;101109.97;1691995;82;26035;-72
2021/04/25 00:54:05;;;;;;;10.98;4.70;;;;;;;4.25;61.21;101105.17;1716633;82;27579;-73
2021/04/25 00:56:33;;;;;;;11.20;5.42;;;;;;;4.24;61.47;101096.86;1632191;85;25965;-73
2021/04/25 00:59:01;;;;;;;11.43;5.47;;;;;;;4.23;61.71;101096.52;1634557;84;25865;-73
2021/04/25 01:01:28;;;;;;;8.38;5.45;;;;;;;4.22;61.69;101100.12;1639878;85;27524;-72
2021/04/25 01:03:56;;;;;;;9.00;5.33;;;;;;;4.23;62.04;101099.17;1665182;85;26105;-72
2021/04/25 01:06:23;;;;;;;14.60;5.83;;;;;;;4.25;62.23;101092.40;1625154;84;26098;-72
2021/04/25 01:08:50;;;;;;;15.00;6.10;;;;;;;4.27;62.27;101093.10;1679623;82;26444;-73
2021/04/25 01:11:18;;;;;;;9.73;4.87;;;;;;;4.28;62.41;101090.30;1693227;82;25933;-73
2021/04/25 01:13:50;;;;;;;17.27;8.05;;;;;;;4.28;62.60;101092.95;1717653;82;28461;-73
2021/04/25 01:16:16;;;;;;;22.30;8.70;;;;;;;4.30;62.38;101092.84;1656575;82;25955;-74
2021/04/25 01:18:44;;;;;;;24.72;10.10;;;;;;;4.27;62.16;101088.64;1676472;84;25835;-73
2021/04/25 01:21:11;;;;;;;18.25;7.87;;;;;;;4.23;62.20;101083.74;1682955;82;25894;-73
2021/04/25 01:23:38;;;;;;;19.45;8.10;;;;;;;4.17;62.48;101084.28;1727370;82;26186;-74
2021/04/25 01:26:06;;;;;;;15.88;6.33;;;;;;;4.13;62.66;101082.37;1678042;82;27549;-74
2021/04/25 01:28:33;;;;;;;15.10;6.90;;;;;;;4.11;63.05;101082.98;1685408;82;25821;-72
2021/04/25 01:31:01;;;;;;;10.15;6.37;;;;;;;4.09;63.34;101076.13;1715311;82;25748;-74
2021/04/25 01:33:28;;;;;;;13.55;6.40;;;;;;;4.09;63.57;101069.03;1725399;82;25920;-74
2021/04/25 01:35:56;;;;;;;12.00;6.42;;;;;;;4.09;63.69;101071.68;1658577;82;26522;-74
2021/04/25 01:38:23;;;;;;;14.50;6.15;;;;;;;4.10;64.18;101070.72;1725467;82;27533;-74
2021/04/25 01:40:50;;;;;;;14.00;6.53;;;;;;;4.09;64.39;101074.33;1745415;81;25906;-73
2021/04/25 01:43:18;;;;;;;13.35;7.03;;;;;;;4.09;64.46;101074.81;1725644;82;25641;-74
2021/04/25 01:45:45;;;;;;;12.63;6.25;;;;;;;4.05;64.48;101071.59;1662977;84;26512;-73
2021/04/25 01:48:13;;;;;;;10.00;5.72;;;;;;;4.05;64.39;101074.73;1665691;83;26089;-74
2021/04/25 01:50:40;;;;;;;12.05;6.42;;;;;;;4.05;64.28;101066.77;1675776;84;27353;-74
2021/04/25 01:53:10;;;;;;;14.58;7.42;;;;;;;4.04;64.23;101072.59;1720402;82;26064;-73
2021/04/25 01:55:39;;;;;;;11.48;5.85;;;;;;;4.03;63.98;101077.52;1656172;82;25894;-74
2021/04/25 01:58:09;;;;;;;10.98;5.67;;;;;;;3.97;64.06;101079.38;1653732;84;25978;-73
2021/04/25 02:00:44;;;;;;;10.55;4.60;;;;;;;3.90;64.17;101078.23;1698324;82;25750;-73
2021/04/25 02:03:14;;;;;;;8.90;4.87;;;;;;;3.82;64.73;101075.41;1713295;82;28245;-74
2021/04/25 02:05:42;;;;;;;11.10;5.42;;;;;;;3.70;64.99;101070.66;1692804;82;26421;-73
2021/04/25 02:08:12;;;;;;;9.68;4.55;;;;;;;3.66;65.29;101065.27;1702759;82;25798;-73
2021/04/25 02:10:42;;;;;;;13.95;4.92;;;;;;;3.67;65.53;101068.77;1702869;82;25890;-74
2021/04/25 02:13:10;;;;;;;9.53;4.67;;;;;;;3.67;65.92;101067.45;1721758;82;26043;-73
2021/04/25 02:15:37;;;;;;;9.45;4.85;;;;;;;3.65;65.78;101061.44;1674289;82;27617;-73
2021/04/25 02:18:05;;;;;;;14.07;5.83;;;;;;;3.60;66.02;101058.33;1704522;82;26350;-73
2021/04/25 02:20:34;;;;;;;12.65;5.70;;;;;;;3.57;66.10;101067.88;1701748;82;26424;-74
2021/04/25 02:23:01;;;;;;;13.30;5.30;;;;;;;3.56;66.28;101071.01;1721905;82;25779;-74
2021/04/25 02:25:28;;;;;;;9.00;4.75;;;;;;;3.53;66.20;101064.64;1651332;82;26076;-74
2021/04/25 02:27:57;;;;;;;11.25;4.40;;;;;;;3.48;66.21;101060.71;1679364;82;27610;-74
2021/04/25 02:30:29;;;;;;;10.35;5.10;;;;;;;3.43;66.21;101065.07;1703105;82;26276;-75
2021/04/25 02:32:58;;;;;;;9.00;4.92;;;;;;;3.40;66.40;101064.50;1716833;82;25855;-74
2021/04/25 02:35:28;;;;;;;11.53;4.72;;;;;;;3.38;66.73;101061.95;1651395;84;26343;-74
2021/04/25 02:37:57;;;;;;;9.73;4.73;;;;;;;3.35;66.75;101061.39;1689014;83;25894;-75
2021/04/25 02:40:28;;;;;;;10.32;4.35;;;;;;;3.31;66.93;101062.62;1692627;84;28525;-74
2021/04/25 02:42:56;;;;;;;;;;;;;;;3.28;66.93;101061.06;1718342;82;25854;-74
2021/04/25 02:45:26;;;;;;;9.98;4.80;;;;;;;3.27;67.10;101068.67;1684600;83;25826;-74
2021/04/25 02:48:00;;;;;;;9.00;4.80;;;;;;;3.24;67.22;101065.42;1695772;82;26404;-74
2021/04/25 02:50:35;;;;;;;8.58;4.90;;;;;;;3.24;67.32;101067.59;1702386;82;25837;-73
2021/04/25 02:53:03;;;;;;;9.93;4.28;;;;;;;3.26;67.55;101064.33;1697966;82;27544;-74
2021/04/25 02:55:31;;;;;;;11.95;4.83;;;;;;;3.23;67.23;101069.86;1654316;82;26192;-74
2021/04/25 02:57:59;;;;;;;9.35;4.65;;;;;;;3.17;66.84;101065.56;1681433;82;25663;-73
2021/04/25 03:00:28;;;;;;;11.97;4.35;;;;;;;3.09;66.77;101065.74;1702378;82;26254;-73
2021/04/25 03:02:57;;;;;;;9.28;5.30;;;;;;;3.05;67.07;101055.53;1649366;82;26171;-76
2021/04/25 03:05:26;;;;;;;7.20;4.55;;;;;;;3.02;67.23;101057.95;1706476;82;27555;-74
2021/04/25 03:07:54;;;;;;;10.70;5.25;;;;;;;3.00;67.03;101057.72;1701151;82;25830;-73
2021/04/25 03:10:23;;;;;;;9.53;4.40;;;;;;;2.89;66.91;101052.47;1705345;82;25837;-73
2021/04/25 03:12:50;;;;;;;9.70;4.87;;;;;;;2.84;66.77;101056.84;1673779;82;26435;-74
2021/04/25 03:15:20;;;;;;;9.05;4.70;;;;;;;2.81;66.75;101060.20;1706597;82;25773;-72
2021/04/25 03:17:49;;;;;;;12.10;4.80;;;;;;;2.76;66.48;101065.05;1704291;82;27347;-73
2021/04/25 03:20:20;;;;;;;10.88;6.17;;;;;;;2.73;66.61;101061.31;1673987;82;26351;-73
2021/04/25 03:22:48;;;;;;;10.93;6.10;;;;;;;2.69;66.95;101061.21;1697991;82;25867;-74
2021/04/25 03:25:16;;;;;;;12.70;5.42;;;;;;;2.66;67.50;101060.97;1703298;82;25867;-73
2021/04/25 03:27:44;;;;;;;11.97;6.25;;;;;;;2.63;67.79;101056.43;1701112;82;25816;-74
2021/04/25 03:30:14;;;;;;;15.38;5.90;;;;;;;2.61;67.94;101060.50;1673968;82;27726;-74
2021/04/25 03:32:42;;;;;;;11.37;7.00;;;;;;;2.64;67.87;101060.73;1706436;82;25923;-73
2021/04/25 03:35:12;;;;;;;20.45;7.97;;;;;;;2.61;67.71;101063.66;1704251;82;25781;-73
2021/04/25 03:37:40;;;;;;;20.52;8.70;;;;;;;2.57;67.64;101061.72;1700787;83;26054;-73
2021/04/25 03:40:12;;;;;;;22.15;9.15;;;;;;;2.57;67.64;101063.52;1679946;82;26237;-74
2021/04/25 03:42:39;;;;;;;19.05;8.45;;;;;;;2.55;67.52;101054.39;1698599;82;28499;-74
2021/04/25 03:45:15;;;;;;;14.03;8.78;;;;;;;2.55;67.48;101058.36;1720944;82;25725;-73
2021/04/25 03:47:49;;;;;;;17.35;8.18;;;;;;;2.55;67.47;101056.19;1698299;82;25796;-74
2021/04/25 03:50:21;;;;;;;20.23;8.65;;;;;;;2.55;67.45;101060.16;1684001;82;26479;-73
2021/04/25 03:52:49;;;;;;;20.50;9.68;;;;;;;2.55;67.50;101065.44;1702189;82;25383;-74
2021/04/25 03:55:18;;;;;;;15.35;7.72;;;;;;;2.56;67.78;101060.05;1704305;82;27610;-73
2021/04/25 03:57:45;;;;;;;17.50;8.45;;;;;;;2.56;68.06;101064.49;1702524;82;25876;-72
2021/04/25 04:00:15;;;;;;;13.35;7.25;;;;;;;2.54;68.16;101066.42;1670750;83;25816;-73
2021/04/25 04:02:42;;;;;;;12.98;6.42;;;;;;;2.53;68.29;101062.08;1667915;83;26435;-73
2021/04/25 04:05:11;;;;;;;7.47;4.65;;;;;;;2.54;68.47;101073.88;1695832;82;26386;-73
2021/04/25 04:07:39;;;;;;;10.45;5.03;;;;;;;2.48;68.45;101064.28;1704765;82;28278;-73
2021/04/25 04:10:09;;;;;;;10.60;4.65;;;;;;;2.47;68.72;101066.55;1704115;82;25810;-73
2021/04/25 04:12:36;;;;;;;13.03;5.55;;;;;;;2.46;68.65;101065.70;1699066;82;26572;-73
2021/04/25 04:15:06;;;;;;;10.48;5.03;;;;;;;2.44;68.55;101067.63;1701026;83;25711;-73
2021/04/25 04:17:33;;;;;;;10.38;4.95;;;;;;;2.45;68.74;101070.65;1698275;83;25910;-74
2021/04/25 04:20:01;;;;;;;10.30;5.00;;;;;;;2.44;68.77;101071.59;1676214;83;28424;-73
2021/04/25 04:22:28;;;;;;;11.55;6.33;;;;;;;2.45;68.91;101068.00;1699020;83;25838;-73
2021/04/25 04:24:55;;;;;;;13.35;6.78;;;;;;;2.47;68.77;101070.05;1700733;83;25782;-74
2021/04/25 04:27:23;;;;;;;20.55;8.53;;;;;;;2.50;68.72;101067.64;1701512;83;25808;-74
2021/04/25 04:29:50;;;;;;;19.05;11.53;;;;;;;2.52;68.73;101070.52;1678328;83;26079;-73
2021/04/25 04:32:18;;;;;;;29.98;19.52;;;;;;;2.58;68.76;101070.50;1655517;84;28526;-73
2021/04/25 04:34:45;;;;;;;73.07;41.37;;;;;;;2.64;68.70;101073.96;1706909;83;25681;-73
2021/04/25 04:37:12;;;;;;;35.55;19.32;;;;;;;2.71;68.58;101075.16;1699746;82;25814;-73
2021/04/25 04:39:40;;;;;;;29.00;14.45;;;;;;;2.77;68.68;101072.00;1672373;83;25997;-74
2021/04/25 04:42:07;;;;;;;24.67;13.13;;;;;;;2.84;68.72;101070.06;1670135;83;25805;-75
2021/04/25 04:44:34;;;;;;;27.62;13.70;;;;;;;2.89;68.57;101062.57;1671011;83;27654;-74
2021/04/25 04:47:02;;;;;;;25.43;13.98;;;;;;;2.91;68.24;101067.73;1691552;83;25872;-74
2021/04/25 04:49:29;;;;;;;28.80;15.63;;;;;;;2.94;68.23;101065.69;1676246;83;25925;-74
2021/04/25 04:51:56;;;;;;;36.05;17.37;;;;;;;2.99;67.99;101065.31;1690541;83;26234;-73
2021/04/25 04:54:24;;;;;;;30.12;17.82;;;;;;;3.03;67.82;101070.70;1699336;83;25734;-73
2021/04/25 04:56:51;;;;;;;31.07;16.50;;;;;;;3.04;67.82;101068.39;1659430;84;28192;-73
2021/04/25 04:59:18;;;;;;;31.55;14.50;;;;;;;3.10;67.83;101070.05;1673811;82;25773;-73
2021/04/25 05:01:46;;;;;;;29.37;13.93;;;;;;;3.16;67.79;101068.72;1663470;82;25905;-73
2021/04/25 05:04:13;;;;;;;31.02;17.32;;;;;;;3.21;67.50;101065.19;1682822;82;25940;-74
2021/04/25 05:06:40;;;;;;;33.25;17.67;;;;;;;3.26;67.46;101068.77;1703226;83;25842;-73
2021/04/25 05:09:08;;;;;;;30.35;16.02;;;;;;;3.31;67.46;101063.47;1680760;83;27551;-72
2021/04/25 05:11:35;;;;;;;29.00;16.10;;;;;;;3.39;67.24;101069.42;1680007;83;26368;-73
2021/04/25 05:14:03;;;;;;;31.02;15.88;;;;;;;3.47;67.24;101065.64;1678812;84;25933;-71
2021/04/25 05:16:30;;;;;;;22.82;11.80;;;;;;;3.52;67.19;101070.07;1711838;82;26233;-73
2021/04/25 05:18:57;;;;;;;24.12;11.18;;;;;;;3.50;66.90;101070.69;1684589;84;25354;-74
2021/04/25 05:21:25;;;;;;;17.60;9.28;;;;;;;3.50;66.82;101067.56;1703098;82;28431;-73
2021/04/25 05:23:52;;;;;;;16.87;9.18;;;;;;;3.52;66.78;101072.72;1686443;83;26475;-74
2021/04/25 05:26:20;;;;;;;21.02;9.43;;;;;;;3.55;66.95;101073.80;1680706;82;25780;-72
2021/04/25 05:28:47;;;;;;;16.57;8.85;;;;;;;3.64;66.74;101073.84;1671131;82;25873;-73
2021/04/25 05:31:15;;;;;;;17.85;8.48;;;;;;;3.76;66.67;101075.94;1713337;81;26098;-73
2021/04/25 05:33:44;;;;;;;14.28;8.20;;;;;;;3.87;66.50;101066.58;1715402;82;26930;-73
2021/04/25 05:36:11;;;;;;;13.65;7.83;;;;;;;3.99;66.43;101064.19;1692389;82;26016;-73
2021/04/25 05:38:39;;;;;;;14.63;7.35;;;;;;;4.10;66.21;101064.58;1707219;81;25807;-72
2021/04/25 05:41:06;;;;;;;14.07;7.42;;;;;;;4.24;65.84;101067.69;1658887;83;26013;-73
2021/04/25 05:43:34;;;;;;;13.10;7.12;;;;;;;4.38;65.35;101059.86;1721359;82;25876;-73
2021/04/25 05:46:01;;;;;;;16.05;7.60;;;;;;;4.51;64.90;101063.91;1685966;82;27326;-73
2021/04/25 05:48:29;;;;;;;14.80;7.17;;;;;;;4.63;64.34;101060.66;1681959;82;25813;-74
2021/04/25 05:50:56;;;;;;;12.85;6.55;;;;;;;4.77;63.87;101062.91;1695854;82;25856;-73
2021/04/25 05:53:24;;;;;;;8.50;5.60;;;;;;;4.90;63.69;101058.68;1706323;82;26343;-72
2021/04/25 05:55:51;;;;;;;11.40;5.50;;;;;;;5.00;62.69;101062.16;1688427;82;26500;-73
2021/04/25 05:58:19;;;;;;;8.80;4.58;;;;;;;5.13;62.25;101062.21;1681413;82;27549;-74
2021/04/25 06:00:46;;;;;;;9.38;4.65;;;;;;;5.24;61.21;101064.72;1669192;82;26075;-73
2021/04/25 06:03:14;;;;;;;6.33;3.87;;;;;;;5.33;60.09;101065.21;1691315;82;26117;-73
2021/04/25 06:05:41;;;;;;;6.92;3.67;;;;;;;5.45;59.22;101065.91;1695174;82;25805;-73
2021/04/25 06:08:09;;;;;;;5.47;3.45;;;;;;;5.57;59.35;101065.23;1677628;82;25861;-72
2021/04/25 06:10:36;;;;;;;6.00;3.15;;;;;;;5.65;57.72;101052.91;1693903;82;27627;-73
2021/04/25 06:13:04;;;;;;;5.53;3.15;;;;;;;5.76;58.08;101059.39;1691058;82;25862;-73
2021/04/25 06:15:32;;;;;;;8.23;5.67;;;;;;;5.86;57.46;101056.23;1692809;82;25961;-73
2021/04/25 06:18:02;;;;;;;7.33;5.47;;;;;;;5.99;56.94;101057.23;1633360;82;26499;-73
2021/04/25 06:20:30;;;;;;;7.17;4.70;;;;;;;6.10;57.02;101061.88;1696964;82;26175;-73
2021/04/25 06:22:58;;;;;;;7.33;3.37;;;;;;;6.22;56.63;101056.70;1731291;82;27491;-73
2021/04/25 06:25:26;;;;;;;5.53;2.90;;;;;;;6.42;56.16;101057.92;1705880;82;25808;-73
2021/04/25 06:27:54;;;;;;;4.92;2.50;;;;;;;6.66;56.54;101053.73;1730889;81;26617;-72
2021/04/25 06:30:24;;;;;;;4.25;1.77;;;;;;;6.84;55.84;101051.08;1675558;82;25777;-73
2021/04/25 06:32:52;;;;;;;2.80;1.62;;;;;;;7.01;54.95;101044.92;1719331;83;25792;-74
2021/04/25 06:35:20;;;;;;;3.35;1.57;;;;;;;7.15;53.20;101048.36;1676763;84;27356;-73
2021/04/25 06:37:47;;;;;;;3.95;1.90;;;;;;;7.20;50.26;101054.56;1695504;84;26121;-75
2021/04/25 06:40:17;;;;;;;2.15;1.50;;;;;;;7.18;51.00;101049.39;1698607;82;25799;-73
2021/04/25 06:42:45;;;;;;;3.83;1.75;;;;;;;7.20;51.22;101051.89;1690066;82;26567;-75
2021/04/25 06:45:16;;;;;;;3.27;1.75;;;;;;;7.26;51.06;101049.95;1699291;82;25931;-73
2021/04/25 06:47:44;;;;;;;4.72;1.80;;;;;;;7.31;50.54;101055.17;1716266;82;28443;-73
2021/04/25 06:50:13;;;;;;;3.42;1.40;;;;;;;7.36;50.36;101055.52;1695548;83;25793;-75
2021/04/25 06:52:44;;;;;;;2.60;1.50;;;;;;;7.42;47.10;101057.56;1688022;84;25914;-74
2021/04/25 06:55:16;;;;;;;6.10;2.47;;;;;;;7.41;48.85;101054.58;1671251;82;26938;-74
2021/04/25 06:57:44;;;;;;;1.70;1.40;;;;;;;7.43;47.41;101047.74;1665334;84;26458;-76
2021/04/25 07:00:15;;;;;;;2.95;0.80;;;;;;;7.41;46.01;101054.58;1685840;83;28456;-76
2021/04/25 07:02:42;;;;;;;1.87;1.10;;;;;;;7.43;46.51;101058.41;1695995;84;25456;-72
2021/04/25 07:05:10;;;;;;;2.83;1.80;;;;;;;7.54;46.39;101056.83;1700282;83;26350;-73
2021/04/25 07:07:37;;;;;;;3.52;1.45;;;;;;;7.60;44.98;101054.37;1665550;82;25721;-72
2021/04/25 07:10:07;;;;;;;2.30;1.12;;;;;;;7.66;46.08;101059.56;1702047;82;25776;-74
2021/04/25 07:12:34;;;;;;;1.80;0.95;;;;;;;7.66;43.54;101056.41;1741483;81;27416;-73
2021/04/25 07:15:04;;;;;;;0.98;0.78;;;;;;;7.72;45.48;101053.59;1671697;82;25940;-74
2021/04/25 07:17:31;;;;;;;1.75;1.00;;;;;;;7.77;43.82;101056.15;1712902;82;25691;-76
2021/04/25 07:19:59;;;;;;;2.45;1.10;;;;;;;7.77;42.37;101064.64;1683706;84;25941;-74
2021/04/25 07:22:27;;;;;;;1.25;1.07;;;;;;;7.73;41.01;101046.80;1683033;83;25839;-73
2021/04/25 07:24:54;;;;;;;2.67;0.78;;;;;;;7.72;40.78;101053.11;1669183;82;28055;-73
2021/04/25 07:27:21;;;;;;;0.80;0.70;;;;;;;7.72;40.40;101052.27;1674340;83;26275;-73
2021/04/25 07:29:49;;;;;;;2.40;1.00;;;;;;;7.72;39.42;101050.44;1686337;83;26063;-74
2021/04/25 07:32:17;;;;;;;1.70;0.98;;;;;;;7.75;40.81;101050.63;1687114;83;26217;-74
2021/04/25 07:34:45;;;;;;;3.47;1.10;;;;;;;7.77;40.71;101048.15;1666037;83;25982;-73
2021/04/25 07:37:13;;;;;;;1.72;1.00;;;;;;;7.79;41.65;101055.49;1697831;83;27658;-73
2021/04/25 07:39:41;;;;;;;1.40;0.90;;;;;;;7.83;41.39;101054.67;1689704;83;25786;-74
2021/04/25 07:42:11;;;;;;;1.00;0.90;;;;;;;7.89;40.24;101047.88;1688379;83;25856;-73
2021/04/25 07:44:41;;;;;;;2.35;1.22;;;;;;;7.98;42.03;101038.41;1667860;84;26359;-73
2021/04/25 07:47:09;;;;;;;1.40;0.93;;;;;;;8.12;41.27;101043.17;1664624;85;25787;-73
2021/04/25 07:49:37;;;;;;;1.95;1.27;;;;;;;8.11;39.33;101046.82;1691404;83;28549;-72
2021/04/25 07:52:05;;;;;;;2.05;1.10;;;;;;;8.09;40.44;101048.81;1691255;83;26262;-73
2021/04/25 07:54:33;;;;;;;2.27;1.25;;;;;;;8.16;40.66;101050.34;1670207;83;25813;-73
2021/04/25 07:57:00;;;;;;;1.67;1.10;;;;;;;8.17;39.52;101049.36;1679251;84;26501;-74
2021/04/25 07:59:28;;;;;;;1.70;1.10;;;;;;;8.20;39.93;101051.20;1696000;83;25843;-74
2021/04/25 08:01:55;;;;;;;2.25;1.57;;;;;;;8.23;39.74;101045.53;1660738;85;26701;-72
2021/04/25 08:04:22;;;;;;;2.22;1.25;;;;;;;8.29;40.04;101038.27;1664691;85;25866;-74
2021/04/25 08:06:49;;;;;;;3.08;1.00;;;;;;;8.39;39.85;101038.12;1696132;83;26132;-73
2021/04/25 08:09:17;;;;;;;2.70;1.00;;;;;;;8.46;40.18;101040.48;1714171;83;26075;-72
2021/04/25 08:11:44;;;;;;;5.83;1.57;;;;;;;8.54;39.19;101037.83;1711693;82;26246;-74
2021/04/25 08:14:12;;;;;;;1.62;1.00;;;;;;;8.55;38.31;101036.32;1722807;81;27595;-73
2021/04/25 08:16:39;;;;;;;1.40;0.85;;;;;;;8.54;38.85;101033.34;1723344;80;26289;-74
2021/04/25 08:19:06;;;;;;;1.98;1.02;;;;;;;8.60;38.59;101045.19;1729382;80;25834;-72
2021/04/25 08:21:34;;;;;;;3.60;1.12;;;;;;;8.65;38.54;101046.87;1740937;80;25763;-73
2021/04/25 08:24:02;;;;;;;2.30;0.80;;;;;;;8.73;38.47;101043.37;1742763;80;26151;-73
2021/04/25 08:26:29;;;;;;;1.55;0.93;;;;;;;8.78;38.17;101039.23;1699983;83;28428;-73
2021/04/25 08:28:56;;;;;;;0.88;0.65;;;;;;;8.81;36.08;101036.20;1714758;82;25883;-73
2021/04/25 08:31:24;;;;;;;1.47;1.00;;;;;;;8.85;35.87;101022.89;1700766;82;25774;-73
2021/04/25 08:33:51;;;;;;;2.25;1.02;;;;;;;8.85;37.34;101022.89;1677716;82;26468;-73
2021/04/25 08:36:18;;;;;;;1.10;0.70;;;;;;;8.94;37.67;101018.39;1704112;82;25825;-73
2021/04/25 08:38:47;;;;;;;2.10;1.42;;;;;;;9.04;38.15;101013.70;1702345;81;28497;-72
2021/04/25 08:41:17;;;;;;;1.82;0.93;;;;;;;9.10;36.13;101019.22;1705479;81;25849;-72
2021/04/25 08:43:45;;;;;;;3.12;1.15;;;;;;;9.08;37.70;101022.56;1737644;81;25798;-74
2021/04/25 08:46:20;;;;;;;1.42;1.15;;;;;;;9.12;36.46;101017.22;1711466;82;25844;-74
2021/04/25 08:48:49;;;;;;;7.00;2.67;;;;;;;9.11;36.29;101012.86;1712652;81;26228;-72
2021/04/25 08:51:18;;;;;;;5.95;1.77;;;;;;;9.14;37.24;101011.69;1729814;80;27321;-72
2021/04/25 08:53:47;;;;;;;3.08;1.32;;;;;;;9.25;36.55;101013.54;1738321;80;25331;-73
2021/04/25 08:56:16;;;;;;;1.50;1.10;;;;;;;9.26;37.59;101013.02;1754647;80;26442;-73
2021/04/25 08:58:44;;;;;;;1.60;1.20;;;;;;;9.10;35.87;101007.69;1720723;81;25838;-73
2021/04/25 09:01:12;;;;;;;2.12;1.10;;;;;;;8.92;36.25;101011.01;1724135;80;25918;-73
2021/04/25 09:03:40;;;;;;;2.47;1.30;;;;;;;8.82;36.84;101006.34;1758606;80;27527;-73
2021/04/25 09:06:12;;;;;;;1.87;1.30;;;;;;;8.74;36.24;101009.84;1737284;80;25825;-72
2021/04/25 09:08:53;;;;;;;2.98;1.32;;;;;;;8.72;36.31;101003.84;1742872;81;25830;-72
2021/04/25 09:11:36;;;;;;;3.22;1.37;;;;;;;8.81;36.99;100998.00;1761762;80;26261;-73
2021/04/25 09:14:19;;;;;;;1.55;1.10;;;;;;;8.85;36.11;101004.69;1763050;80;26062;-72
2021/04/25 09:16:59;;;;;;;2.27;1.30;;;;;;;8.82;36.00;101007.18;1695241;81;27640;-73
2021/04/25 09:19:52;;;;;;;2.70;1.67;;;;;;;8.76;36.62;101009.18;1725636;81;26009;-73
2021/04/25 09:22:23;;;;;;;2.40;1.17;;;;;;;8.67;36.02;101003.48;1732583;80;25883;-72
2021/04/25 09:24:54;;;;;;;;;;;;;;;8.47;34.63;101008.77;1766784;80;26515;-73
2021/04/25 09:27:27;;;;;;;1.12;0.60;;;;;;;8.35;36.20;101005.59;1701998;83;25798;-73
2021/04/25 09:32:34;;;;;;;1.05;0.78;;;;;;;8.44;34.74;100999.77;1795821;77;25732;-73
2021/04/25 09:35:18;;;;;;;1.77;0.90;;;;;;;8.37;34.03;100994.73;1735135;79;25798;-74
2021/04/25 09:37:50;;;;;;;2.95;1.30;;;;;;;8.36;34.41;100997.90;1742249;79;27982;-74
2021/04/25 09:40:22;;;;;;;1.27;0.82;;;;;;;8.35;34.37;100991.40;1697351;82;25902;-73
2021/04/25 09:43:06;;;;;;;1.10;0.70;;;;;;;8.37;35.34;100992.06;1665455;84;25807;-73
2021/04/25 09:45:40;;;;;;;3.77;1.60;;;;;;;8.46;35.83;100991.09;1668002;84;25828;-73
2021/04/25 09:48:30;;;;;;;8.68;3.10;;;;;;;8.56;36.09;100991.78;1658636;82;26027;-73
2021/04/25 09:51:18;;;;;;;3.83;1.72;;;;;;;8.65;36.61;100985.45;1676609;84;28458;-73
2021/04/25 09:53:56;;;;;;;1.85;0.78;;;;;;;8.73;35.75;100987.28;1644371;83;25837;-73
2021/04/25 09:56:35;;;;;;;1.27;0.85;;;;;;;8.71;33.98;100992.80;1666102;84;25807;-73
2021/04/25 09:59:05;;;;;;;1.00;0.80;;;;;;;8.75;34.89;100987.95;1663746;83;25451;-72
2021/04/25 10:01:39;;;;;;;1.13;0.60;;;;;;;8.88;33.25;100983.80;1665375;84;25725;-74
2021/04/25 10:04:37;;;;;;;1.10;0.72;;;;;;;9.07;35.13;100987.97;1672334;82;29672;-73
2021/04/25 10:07:07;;;;;;;10.72;3.55;;;;;;;9.33;35.07;100986.80;1659193;82;26328;-72
2021/04/25 10:09:35;;;;;;;8.23;3.15;;;;;;;9.49;35.45;100985.09;1687954;82;25827;-74
2021/04/25 10:12:04;;;;;;;12.13;4.47;;;;;;;9.50;35.00;100983.58;1714677;82;26190;-73
2021/04/25 10:14:34;;;;;;;6.60;3.10;;;;;;;9.51;34.18;100987.94;1681232;83;26229;-73
2021/04/25 10:17:03;;;;;;;3.17;1.35;;;;;;;9.49;34.38;100978.41;1660733;82;27522;-73
2021/04/25 10:19:31;;;;;;;6.50;2.58;;;;;;;9.46;34.79;100983.59;1647624;83;26123;-73
2021/04/25 10:21:58;;;;;;;5.00;2.17;;;;;;;9.46;35.71;100985.42;1700558;83;25788;-73
2021/04/25 10:24:25;;;;;;;2.52;1.35;;;;;;;9.46;36.17;100984.94;1669429;83;26343;-73
2021/04/25 10:27:12;;;;;;;1.40;1.05;;;;;;;9.42;34.04;100986.28;1682192;84;25735;-73
2021/04/25 10:29:57;;;;;;;3.75;0.80;;;;;;;9.29;34.37;100985.47;1674689;83;27545;-72
2021/04/25 10:32:24;;;;;;;0.75;0.75;;;;;;;9.23;35.36;100997.33;1678305;83;25685;-74
2021/04/25 10:35:15;;;;;;;1.70;0.95;;;;;;;9.15;34.92;100996.81;1655358;84;25842;-73
2021/04/25 10:37:43;;;;;;;3.25;1.22;;;;;;;9.03;34.68;101009.35;1688546;83;25736;-73
2021/04/25 10:40:32;;;;;;;1.52;0.98;;;;;;;8.65;37.42;101014.83;1642509;84;25789;-74
2021/04/25 10:43:11;;;;;;;2.55;1.27;;;;;;;8.35;39.66;101030.10;1718185;82;27552;-73
2021/04/25 10:46:00;;;;;;;1.50;0.95;;;;;;;8.10;39.79;101028.31;1620611;84;25878;-74
2021/04/25 10:48:33;;;;;;;2.62;1.15;;;;;;;7.99;39.89;101024.09;1662650;82;25444;-74
2021/04/25 10:53:52;;;;;;;4.03;1.05;;;;;;;8.33;41.16;101014.75;1793961;79;25636;-74
2021/04/25 10:56:21;;;;;;;4.60;1.00;;;;;;;8.44;40.02;101021.13;1737489;80;26069;-74
2021/04/25 10:59:11;;;;;;;2.12;1.00;;;;;;;8.55;38.71;101018.97;1736408;79;27329;-74
2021/04/25 11:01:45;;;;;;;1.57;0.82;;;;;;;8.67;38.11;101022.67;1748112;80;25705;-74
2021/04/25 11:04:12;;;;;;;1.90;0.80;;;;;;;8.68;38.08;101036.38;1710576;80;25758;-74
2021/04/25 11:06:41;;;;;;;6.90;1.32;;;;;;;8.64;38.85;101029.17;1700020;80;25789;-75
2021/04/25 11:09:31;;;;;;;2.02;0.80;;;;;;;8.55;39.21;101033.66;1715340;80;25781;-76
2021/04/25 11:11:58;;;;;;;1.22;0.90;;;;;;;8.47;36.98;101026.13;1728089;82;28460;-73
2021/04/25 11:14:40;;;;;;;1.05;0.50;;;;;;;8.44;38.50;101021.13;1668555;80;25886;-74
2021/04/25 11:17:31;;;;;;;0.88;0.62;;;;;;;8.46;36.33;101019.97;1708033;82;25758;-74
2021/04/25 11:19:58;;;;;;;;;;;;;;;8.53;35.83;101025.50;1693644;80;25735;-73
2021/04/25 11:22:44;;;;;;;2.30;1.10;;;;;;;8.66;36.13;101037.04;1704868;82;25770;-75
2021/04/25 11:25:32;;;;;;;1.27;0.70;;;;;;;8.63;39.17;101036.02;1686001;82;28240;-74
2021/04/25 11:27:59;;;;;;;1.15;1.00;;;;;;;8.47;40.29;101041.65;1716540;80;25768;-74
2021/04/25 11:30:41;;;;;;;1.15;0.82;;;;;;;8.50;40.97;101049.34;1719379;80;25389;-74
2021/04/25 11:33:33;;;;;;;2.83;1.00;;;;;;;8.45;39.38;101030.79;1694788;80;25810;-74
2021/04/25 11:36:36;;;;;;;0.93;0.72;;;;;;;8.55;40.67;101041.66;1812776;77;26243;-75
2021/04/25 11:39:05;;;;;;;1.67;1.57;;;;;;;8.51;38.27;101042.18;1740488;79;25359;-76
2021/04/25 11:41:33;;;;;;;0.65;0.62;;;;;;;8.38;39.83;101038.61;1674922;83;27401;-74
2021/04/25 11:44:00;;;;;;;1.95;1.00;;;;;;;8.42;39.87;101043.98;1730655;82;26690;-74
2021/04/25 11:46:34;;;;;;;1.15;0.62;;;;;;;8.47;39.17;101048.81;1698895;82;25356;-74
2021/04/25 11:49:04;;;;;;;1.27;0.80;;;;;;;8.46;40.43;101046.67;1682810;83;25780;-75